createdAt,value
2022-12-17T00:01:08.831Z,23.23
2022-12-17T00:03:57.498Z,25.93
2022-12-17T00:06:49.072Z,25.70
2022-12-17T00:09:37.797Z,25.37
2022-12-17T00:12:26.244Z,27.73
2022-12-17T00:15:14.947Z,29.17
2022-12-17T00:18:03.510Z,28.93
2022-12-17T00:20:51.561Z,30.90
2022-12-17T00:23:41.811Z,31.50
2022-12-17T00:26:30.326Z,29.57
2022-12-17T00:29:20.265Z,30.10
2022-12-17T00:32:11.319Z,34.33
2022-12-17T00:35:01.267Z,26.60
2022-12-17T00:37:51.199Z,29.97
2022-12-17T00:40:44.131Z,27.77
2022-12-17T00:43:33.731Z,28.10
2022-12-17T00:46:24.625Z,25.17
2022-12-17T00:49:16.646Z,27.13
2022-12-17T00:52:05.458Z,23.23
2022-12-17T00:54:54.210Z,24.27
2022-12-17T00:57:44.237Z,23.83
2022-12-17T01:00:32.989Z,24.20
2022-12-17T01:03:27.260Z,23.43
2022-12-17T01:06:18.067Z,23.57
2022-12-17T01:09:07.513Z,25.43
2022-12-17T01:11:56.621Z,26.97
2022-12-17T01:14:46.198Z,24.00
2022-12-17T01:17:34.727Z,24.20
2022-12-17T01:20:24.069Z,26.40
2022-12-17T01:23:13.564Z,27.20
2022-12-17T01:26:04.402Z,22.37
2022-12-17T01:28:52.911Z,24.90
2022-12-17T01:31:41.639Z,25.77
2022-12-17T01:34:30.278Z,25.33
2022-12-17T01:37:19.186Z,23.97
2022-12-17T01:40:08.358Z,23.07
2022-12-17T01:43:02.906Z,21.63
2022-12-17T01:46:03.983Z,21.20
2022-12-17T01:49:02.096Z,23.10
2022-12-17T01:51:51.878Z,23.13
2022-12-17T01:54:41.613Z,22.30
2022-12-17T01:57:31.135Z,21.00
2022-12-17T02:00:25.776Z,23.07
2022-12-17T02:03:14.797Z,20.87
2022-12-17T02:06:33.499Z,22.53
2022-12-17T02:09:30.662Z,18.97
2022-12-17T02:12:21.997Z,22.93
2022-12-17T02:15:38.487Z,22.30
2022-12-17T02:18:40.052Z,24.00
2022-12-17T02:21:31.976Z,19.63
2022-12-17T02:24:29.229Z,19.57
2022-12-17T02:27:23.708Z,22.20
2022-12-17T02:30:21.222Z,21.37
2022-12-17T02:33:14.010Z,19.07
2022-12-17T02:36:11.443Z,18.37
2022-12-17T02:39:00.025Z,19.17
2022-12-17T02:41:51.616Z,19.20
2022-12-17T02:44:44.261Z,16.47
2022-12-17T02:47:31.345Z,18.43
2022-12-17T02:50:22.613Z,17.70
2022-12-17T02:53:12.770Z,19.40
2022-12-17T02:56:01.053Z,18.67
2022-12-17T02:58:51.313Z,17.53
2022-12-17T03:01:40.539Z,17.80
2022-12-17T03:04:33.066Z,18.13
2022-12-17T03:07:21.652Z,18.67
2022-12-17T03:10:05.937Z,19.23
2022-12-17T03:12:54.593Z,18.70
2022-12-17T03:15:43.913Z,19.67
2022-12-17T03:18:33.932Z,18.23
2022-12-17T03:21:23.448Z,16.33
2022-12-17T03:24:13.096Z,17.73
2022-12-17T03:27:01.800Z,19.67
2022-12-17T03:29:50.417Z,18.63
2022-12-17T03:32:38.966Z,18.77
2022-12-17T03:35:30.342Z,19.43
2022-12-17T03:38:19.065Z,17.30
2022-12-17T03:41:10.774Z,19.97
2022-12-17T03:43:59.711Z,17.50
2022-12-17T03:46:49.484Z,18.87
2022-12-17T03:49:37.828Z,20.43
2022-12-17T03:52:30.422Z,19.37
2022-12-17T03:55:19.130Z,19.47
2022-12-17T03:58:08.179Z,19.00
2022-12-17T04:00:59.245Z,20.53
2022-12-17T04:03:47.783Z,20.87
2022-12-17T04:06:39.326Z,20.17
2022-12-17T04:09:27.948Z,20.07
2022-12-17T04:12:16.681Z,20.00
2022-12-17T04:15:06.674Z,21.63
2022-12-17T04:17:45.606Z,21.43
2022-12-17T04:20:34.769Z,22.87
2022-12-17T04:23:23.220Z,21.03
2022-12-17T04:26:11.970Z,21.27
2022-12-17T04:29:00.530Z,19.57
2022-12-17T04:31:53.589Z,20.80
2022-12-17T04:34:41.950Z,20.37
2022-12-17T04:37:30.630Z,21.97
2022-12-17T04:40:21.917Z,20.77
2022-12-17T04:43:10.572Z,20.60
2022-12-17T04:45:59.479Z,20.40
2022-12-17T04:48:51.319Z,21.27
2022-12-17T04:51:39.692Z,20.67
2022-12-17T04:54:27.828Z,18.33
2022-12-17T04:57:16.889Z,16.83
2022-12-17T05:00:05.320Z,15.53
2022-12-17T05:02:54.030Z,16.60
2022-12-17T05:05:46.123Z,17.43
2022-12-17T05:08:41.083Z,17.93
2022-12-17T05:11:25.190Z,19.77
2022-12-17T05:14:14.099Z,20.07
2022-12-17T05:17:02.877Z,18.90
2022-12-17T05:19:51.432Z,19.90
2022-12-17T05:22:40.054Z,19.60
2022-12-17T05:25:28.907Z,20.00
2022-12-17T05:28:17.749Z,20.00
2022-12-17T05:31:13.923Z,19.47
2022-12-17T05:34:04.223Z,20.57
2022-12-17T05:36:52.765Z,20.17
2022-12-17T05:39:41.711Z,17.93
2022-12-17T05:42:30.658Z,18.07
2022-12-17T05:45:19.402Z,19.13
2022-12-17T05:48:07.624Z,19.03
2022-12-17T05:50:42.612Z,18.50
2022-12-17T05:53:34.452Z,19.20
2022-12-17T05:56:23.312Z,18.10
2022-12-17T05:59:11.864Z,16.33
2022-12-17T06:02:01.792Z,18.57
2022-12-17T06:04:50.447Z,17.83
2022-12-17T06:07:40.447Z,16.30
2022-12-17T06:10:29.068Z,16.60
2022-12-17T06:13:10.994Z,17.33
2022-12-17T06:16:00.225Z,19.17
2022-12-17T06:18:48.586Z,18.90
2022-12-17T06:21:37.213Z,19.53
2022-12-17T06:24:26.200Z,20.03
2022-12-17T06:27:16.140Z,18.40
2022-12-17T06:30:04.600Z,18.93
2022-12-17T06:32:54.712Z,18.93
2022-12-17T06:35:43.163Z,19.80
2022-12-17T06:38:31.942Z,18.73
2022-12-17T06:41:20.166Z,19.07
2022-12-17T06:44:08.890Z,19.20
2022-12-17T06:46:57.766Z,19.40
2022-12-17T06:49:46.348Z,21.13
2022-12-17T06:52:36.762Z,21.40
2022-12-17T06:55:26.167Z,21.30
2022-12-17T07:01:32.877Z,22.87
2022-12-17T07:04:23.442Z,19.47
2022-12-17T07:07:12.935Z,19.60
2022-12-17T07:10:01.802Z,18.80
2022-12-17T07:12:49.973Z,19.80
2022-12-17T07:15:38.770Z,20.33
2022-12-17T07:18:28.656Z,21.20
2022-12-17T07:21:17.123Z,20.80
2022-12-17T07:24:05.474Z,19.97
2022-12-17T07:26:55.831Z,19.97
2022-12-17T07:29:44.699Z,20.67
2022-12-17T07:32:33.281Z,20.33
2022-12-17T07:35:21.570Z,20.13
2022-12-17T07:38:11.522Z,19.73
2022-12-17T07:41:00.414Z,21.50
2022-12-17T07:43:53.013Z,18.33
2022-12-17T07:46:39.191Z,19.57
2022-12-17T07:49:27.434Z,19.47
2022-12-17T07:52:17.316Z,20.07
2022-12-17T07:55:06.926Z,20.63
2022-12-17T07:57:55.822Z,20.50
2022-12-17T08:00:49.133Z,22.10
2022-12-17T08:03:35.156Z,21.27
2022-12-17T08:06:26.911Z,21.10
2022-12-17T08:09:15.388Z,23.73
2022-12-17T08:12:04.135Z,17.90
2022-12-17T08:14:52.369Z,17.97
2022-12-17T08:17:41.507Z,17.00
2022-12-17T08:20:30.280Z,16.93
2022-12-17T08:23:24.268Z,19.60
2022-12-17T08:26:12.873Z,19.27
2022-12-17T08:29:03.318Z,19.73
2022-12-17T08:31:51.980Z,20.67
2022-12-17T08:34:40.463Z,21.37
2022-12-17T08:37:30.413Z,19.87
2022-12-17T08:40:19.102Z,20.10
2022-12-17T08:43:07.328Z,18.63
2022-12-17T08:45:57.171Z,19.53
2022-12-17T08:48:45.669Z,19.50
2022-12-17T08:51:34.164Z,21.53
2022-12-17T08:54:24.917Z,21.73
2022-12-17T08:57:30.498Z,23.07
2022-12-17T09:00:05.374Z,24.33
2022-12-17T09:02:53.958Z,24.90
2022-12-17T09:05:43.634Z,22.90
2022-12-17T09:08:32.187Z,22.27
2022-12-17T09:11:20.926Z,21.90
2022-12-17T09:14:10.139Z,20.80
2022-12-17T09:16:58.731Z,22.40
2022-12-17T09:19:50.326Z,21.43
2022-12-17T09:22:38.828Z,22.67
2022-12-17T09:25:28.012Z,22.00
2022-12-17T09:28:21.136Z,23.47
2022-12-17T09:31:09.772Z,24.17
2022-12-17T09:33:58.883Z,21.60
2022-12-17T09:36:51.310Z,21.27
2022-12-17T09:39:39.235Z,22.33
2022-12-17T09:42:48.294Z,21.73
2022-12-17T09:45:39.024Z,20.47
2022-12-17T09:48:41.000Z,23.27
2022-12-17T09:51:42.692Z,23.33
2022-12-17T09:54:34.635Z,23.13
2022-12-17T09:57:26.127Z,23.77
2022-12-17T10:00:15.952Z,23.80
2022-12-17T10:03:06.383Z,22.93
2022-12-17T10:05:57.268Z,24.80
2022-12-17T10:08:47.063Z,24.07
2022-12-17T10:11:44.845Z,22.10
2022-12-17T10:14:42.887Z,20.40
2022-12-17T10:17:43.574Z,23.37
2022-12-17T10:20:45.306Z,22.93
2022-12-17T10:23:48.762Z,21.40
2022-12-17T10:26:39.314Z,21.80
2022-12-17T10:29:38.521Z,23.70
2022-12-17T10:32:32.964Z,24.00
2022-12-17T10:35:39.674Z,21.93
2022-12-17T10:38:34.060Z,25.23
2022-12-17T10:41:24.054Z,24.67
2022-12-17T10:44:12.743Z,24.17
2022-12-17T10:47:02.563Z,23.13
2022-12-17T10:49:52.037Z,24.27
2022-12-17T10:52:48.917Z,22.20
2022-12-17T10:55:45.876Z,24.03
2022-12-17T10:58:46.755Z,25.03
2022-12-17T11:01:41.408Z,24.60
2022-12-17T11:04:49.932Z,27.60
2022-12-17T11:07:44.461Z,24.90
2022-12-17T11:10:37.764Z,25.10
2022-12-17T11:13:29.392Z,26.23
2022-12-17T11:16:20.170Z,26.10
2022-12-17T11:19:13.156Z,25.80
2022-12-17T11:22:05.310Z,25.70
2022-12-17T11:25:01.195Z,25.33
2022-12-17T11:27:53.902Z,26.30
2022-12-17T11:30:46.617Z,25.07
2022-12-17T11:33:42.237Z,25.50
2022-12-17T11:36:51.935Z,27.10
2022-12-17T11:39:47.084Z,26.63
2022-12-17T11:42:41.873Z,26.57
2022-12-17T11:45:39.654Z,24.17
2022-12-17T11:48:35.011Z,24.87
2022-12-17T11:51:32.495Z,26.50
2022-12-17T11:54:27.891Z,27.13
2022-12-17T11:57:22.419Z,27.03
2022-12-17T12:00:41.284Z,26.27
2022-12-17T12:03:51.287Z,26.67
2022-12-17T12:06:58.101Z,26.37
2022-12-17T12:09:57.460Z,25.10
2022-12-17T12:12:54.691Z,27.47
2022-12-17T12:16:03.984Z,24.23
2022-12-17T12:19:13.693Z,23.67
2022-12-17T12:22:11.230Z,24.20
2022-12-17T12:25:17.164Z,23.80
2022-12-17T12:28:20.633Z,21.50
2022-12-17T12:31:12.491Z,22.40
2022-12-17T12:34:11.525Z,22.77
2022-12-17T12:37:02.766Z,22.53
2022-12-17T12:39:58.098Z,23.07
2022-12-17T12:42:52.325Z,22.10
2022-12-17T12:46:06.993Z,27.13
2022-12-17T12:49:18.578Z,22.33
2022-12-17T12:52:10.058Z,22.43
2022-12-17T12:55:07.950Z,21.43
2022-12-17T12:58:02.220Z,21.83
2022-12-17T13:00:56.376Z,20.60
2022-12-17T13:03:51.911Z,21.43
2022-12-17T13:06:45.433Z,21.67
2022-12-17T13:09:32.267Z,21.93
2022-12-17T13:12:04.826Z,21.33
2022-12-17T13:14:53.545Z,21.50
2022-12-17T13:17:47.603Z,24.87
2022-12-17T13:20:30.227Z,23.17
2022-12-17T13:23:23.746Z,23.47
2022-12-17T13:26:18.797Z,25.23
2022-12-17T13:29:02.948Z,22.27
2022-12-17T13:31:40.522Z,21.07
2022-12-17T13:34:27.445Z,21.70
2022-12-17T13:37:05.706Z,23.07
2022-12-17T13:39:49.891Z,24.00
2022-12-17T13:42:35.961Z,24.53
2022-12-17T13:45:12.480Z,22.37
2022-12-17T13:47:45.622Z,23.20
2022-12-17T13:50:33.903Z,24.87
2022-12-17T13:52:57.948Z,23.40
2022-12-17T13:55:31.330Z,23.77
2022-12-17T13:58:02.191Z,23.70
2022-12-17T14:00:34.063Z,23.23
2022-12-17T14:03:12.515Z,24.10
2022-12-17T14:05:47.254Z,25.77
2022-12-17T14:08:21.074Z,26.00
2022-12-17T14:11:14.496Z,24.67
2022-12-17T14:13:48.593Z,25.17
2022-12-17T14:16:22.034Z,25.67
2022-12-17T14:18:57.818Z,25.07
2022-12-17T14:21:30.584Z,25.17
2022-12-17T14:24:02.653Z,25.03
2022-12-17T14:26:33.345Z,22.50
2022-12-17T14:29:08.034Z,23.50
2022-12-17T14:31:42.079Z,25.87
2022-12-17T14:34:13.117Z,22.63
2022-12-17T14:36:47.081Z,22.33
2022-12-17T14:39:32.340Z,22.77
2022-12-17T14:42:30.341Z,22.93
2022-12-17T14:45:08.561Z,24.77
2022-12-17T14:47:41.176Z,22.83
2022-12-17T14:50:15.113Z,23.80
2022-12-17T14:52:48.931Z,23.33
2022-12-17T14:55:40.714Z,22.43
2022-12-17T14:58:17.629Z,21.67
2022-12-17T15:00:59.402Z,23.77
2022-12-17T15:03:36.229Z,26.27
2022-12-17T15:06:10.566Z,25.20
2022-12-17T15:08:47.530Z,28.00
2022-12-17T15:11:22.060Z,25.60
2022-12-17T15:13:56.343Z,25.73
2022-12-17T15:16:27.531Z,24.90
2022-12-17T15:19:01.298Z,24.20
2022-12-17T15:21:34.360Z,25.63
2022-12-17T15:24:10.886Z,25.37
2022-12-17T15:26:42.364Z,24.23
2022-12-17T15:29:15.123Z,23.43
2022-12-17T15:31:48.838Z,24.60
2022-12-17T15:34:20.557Z,23.73
2022-12-17T15:36:51.238Z,23.40
2022-12-17T15:39:23.580Z,24.23
2022-12-17T15:42:12.321Z,23.17
2022-12-17T15:44:43.401Z,23.87
2022-12-17T15:47:16.588Z,23.73
2022-12-17T15:49:48.309Z,22.77
2022-12-17T15:52:19.600Z,24.23
2022-12-17T15:54:52.898Z,22.63
2022-12-17T15:57:25.094Z,22.10
2022-12-17T15:59:58.605Z,19.87
2022-12-17T16:02:29.838Z,21.57
2022-12-17T16:05:00.439Z,22.73
2022-12-17T16:07:30.992Z,21.00
2022-12-17T16:10:05.106Z,21.30
2022-12-17T16:12:33.992Z,20.73
2022-12-17T16:15:05.379Z,21.47
2022-12-17T16:17:36.723Z,22.67
2022-12-17T16:20:11.042Z,23.40
2022-12-17T16:22:41.941Z,22.63
2022-12-17T16:25:12.664Z,20.63
2022-12-17T16:27:43.785Z,21.80
2022-12-17T16:30:15.176Z,21.17
2022-12-17T16:32:47.178Z,21.90
2022-12-17T16:35:20.028Z,21.23
2022-12-17T16:37:54.395Z,21.73
2022-12-17T16:40:26.388Z,23.87
2022-12-17T16:42:58.085Z,20.90
2022-12-17T16:45:29.000Z,21.67
2022-12-17T16:47:59.502Z,21.07
2022-12-17T16:50:30.826Z,23.07
2022-12-17T16:53:04.760Z,20.30
2022-12-17T16:55:37.579Z,20.87
2022-12-17T16:58:08.572Z,19.87
2022-12-17T17:00:39.431Z,20.57
2022-12-17T17:03:12.229Z,19.63
2022-12-17T17:05:42.822Z,21.77
2022-12-17T17:08:14.763Z,23.00
2022-12-17T17:10:47.603Z,21.60
2022-12-17T17:13:18.852Z,21.00
2022-12-17T17:15:49.360Z,21.97
2022-12-17T17:18:24.774Z,23.03
2022-12-17T17:20:55.477Z,23.30
2022-12-17T17:23:26.071Z,22.23
2022-12-17T17:25:57.975Z,21.97
2022-12-17T17:28:29.136Z,22.23
2022-12-17T17:31:04.333Z,21.97
2022-12-17T17:33:38.252Z,21.50
2022-12-17T17:36:12.295Z,21.23
2022-12-17T17:38:43.454Z,22.63
2022-12-17T17:41:16.095Z,21.77
2022-12-17T17:43:47.121Z,23.40
2022-12-17T17:46:20.699Z,22.20
2022-12-17T17:48:57.088Z,21.37
2022-12-17T17:52:07.154Z,21.87
2022-12-17T17:54:12.607Z,21.00
2022-12-17T17:56:48.840Z,21.70
2022-12-17T17:59:20.971Z,22.93
2022-12-17T18:01:56.613Z,23.67
2022-12-17T18:04:27.239Z,23.33
2022-12-17T18:09:33.215Z,26.57
2022-12-17T18:12:05.688Z,23.97
2022-12-17T18:14:42.010Z,24.43
2022-12-17T18:17:12.542Z,23.97
2022-12-17T18:19:43.642Z,23.10
2022-12-17T18:22:16.733Z,25.03
2022-12-17T18:24:49.267Z,23.87
2022-12-17T18:27:19.632Z,23.03
2022-12-17T18:29:52.902Z,22.80
2022-12-17T18:32:26.368Z,23.33
2022-12-17T18:34:57.153Z,21.27
2022-12-17T18:37:29.594Z,21.70
2022-12-17T18:40:01.541Z,21.87
2022-12-17T18:42:41.536Z,21.90
2022-12-17T18:45:16.054Z,22.23
2022-12-17T18:47:48.950Z,21.53
2022-12-17T18:50:19.670Z,21.47
2022-12-17T18:52:52.735Z,20.90
2022-12-17T18:55:23.167Z,21.07
2022-12-17T18:57:53.807Z,21.83
2022-12-17T19:00:24.800Z,20.80
2022-12-17T19:02:55.712Z,21.97
2022-12-17T19:05:28.620Z,21.40
2022-12-17T19:07:59.500Z,21.33
2022-12-17T19:10:32.185Z,21.03
2022-12-17T19:13:04.635Z,19.80
2022-12-17T19:15:37.163Z,18.77
2022-12-17T19:18:08.752Z,20.77
2022-12-17T19:20:39.383Z,18.13
2022-12-17T19:23:11.648Z,22.77
2022-12-17T19:25:47.349Z,19.63
2022-12-17T19:28:21.267Z,19.13
2022-12-17T19:30:57.747Z,18.67
2022-12-17T19:33:29.837Z,20.77
2022-12-17T19:36:06.402Z,19.37
2022-12-17T19:38:38.701Z,19.63
2022-12-17T19:41:12.346Z,20.10
2022-12-17T19:43:46.492Z,21.60
2022-12-17T19:46:20.617Z,19.17
2022-12-17T19:48:53.021Z,18.43
2022-12-17T19:51:26.114Z,19.33
2022-12-17T19:53:58.870Z,19.30
2022-12-17T19:56:31.985Z,19.90
2022-12-17T19:59:07.861Z,18.80
2022-12-17T20:01:48.747Z,20.17
2022-12-17T20:04:19.337Z,17.93
2022-12-17T20:06:49.975Z,17.53
2022-12-17T20:09:21.635Z,18.20
2022-12-17T20:11:54.573Z,19.07
2022-12-17T20:14:29.534Z,18.53
2022-12-17T20:17:03.263Z,20.90
2022-12-17T20:19:34.988Z,18.93
2022-12-17T20:22:07.026Z,19.53
2022-12-17T20:24:39.904Z,18.50
2022-12-17T20:27:13.116Z,19.30
2022-12-17T20:29:47.238Z,21.30
2022-12-17T20:32:20.331Z,18.33
2022-12-17T20:34:51.552Z,17.57
2022-12-17T20:37:21.981Z,18.20
2022-12-17T20:39:52.555Z,17.40
2022-12-17T20:42:23.116Z,18.13
2022-12-17T20:44:53.831Z,16.83
2022-12-17T20:47:26.894Z,17.17
2022-12-17T20:49:57.672Z,17.13
2022-12-17T20:52:29.397Z,17.67
2022-12-17T20:55:00.222Z,17.60
2022-12-17T20:57:30.702Z,18.67
2022-12-17T21:00:01.239Z,18.37
2022-12-17T21:02:32.669Z,17.63
2022-12-17T21:05:04.458Z,18.77
2022-12-17T21:07:34.988Z,18.77
2022-12-17T21:10:11.362Z,19.43
2022-12-17T21:13:05.079Z,18.13
2022-12-17T21:15:35.796Z,18.63
2022-12-17T21:18:10.357Z,19.13
2022-12-17T21:20:46.050Z,18.07
2022-12-17T21:23:18.967Z,19.63
2022-12-17T21:25:59.713Z,17.73
2022-12-17T21:28:33.819Z,16.83
2022-12-17T21:31:06.831Z,16.27
2022-12-17T21:33:41.753Z,20.07
2022-12-17T21:36:21.047Z,19.33
2022-12-17T21:38:53.695Z,17.37
2022-12-17T21:41:31.649Z,18.77
2022-12-17T21:44:05.485Z,16.10
2022-12-17T21:46:37.218Z,18.40
2022-12-17T21:49:07.933Z,16.90
2022-12-17T21:51:41.636Z,18.27
2022-12-17T21:54:19.232Z,17.73
2022-12-17T21:56:48.071Z,18.00
2022-12-17T21:59:20.209Z,19.20
2022-12-17T22:01:53.187Z,17.77
2022-12-17T22:04:27.763Z,17.87
2022-12-17T22:07:00.902Z,16.90
2022-12-17T22:09:33.100Z,16.60
2022-12-17T22:12:22.467Z,16.87
2022-12-17T22:14:53.194Z,16.30
2022-12-17T22:17:27.212Z,16.47
2022-12-17T22:19:57.829Z,16.43
2022-12-17T22:22:28.432Z,16.47
2022-12-17T22:25:04.495Z,17.27
2022-12-17T22:27:34.481Z,16.63
2022-12-17T22:30:26.029Z,17.93
2022-12-17T22:33:09.475Z,14.87
2022-12-17T22:38:29.883Z,16.27
2022-12-17T22:42:03.902Z,16.73
2022-12-17T22:44:31.455Z,15.63
2022-12-17T22:44:43.673Z,16.30
2022-12-17T22:46:06.363Z,18.23
2022-12-17T22:48:40.296Z,15.57
2022-12-17T22:51:15.449Z,16.80
2022-12-17T22:53:43.868Z,17.43
2022-12-17T22:56:26.800Z,16.23
2022-12-17T22:58:48.825Z,17.20
2022-12-17T23:01:22.926Z,16.43
2022-12-17T23:03:58.335Z,16.30
2022-12-17T23:06:30.358Z,16.17
2022-12-17T23:09:01.424Z,16.93
2022-12-17T23:11:32.050Z,18.10
2022-12-17T23:14:09.817Z,16.63
2022-12-17T23:16:43.896Z,17.50
2022-12-17T23:19:14.556Z,15.90
2022-12-17T23:21:45.222Z,18.90
2022-12-17T23:24:17.503Z,14.60
2022-12-17T23:26:48.093Z,22.47
2022-12-17T23:29:19.780Z,16.63
2022-12-17T23:31:51.143Z,15.43
2022-12-17T23:34:21.939Z,16.67
2022-12-17T23:36:53.941Z,17.10
2022-12-17T23:39:24.622Z,16.90
2022-12-17T23:41:57.255Z,15.53
2022-12-17T23:44:27.714Z,17.67
2022-12-17T23:46:58.348Z,15.73
2022-12-17T23:49:30.242Z,16.13
2022-12-17T23:52:02.587Z,15.37
2022-12-17T23:54:33.213Z,15.13
2022-12-17T23:57:03.754Z,15.80
2022-12-17T23:59:34.518Z,14.20
